JST414 YSSY-YBCG
Flight info
| Callsign | JST414 |
|---|---|
| Flight time | 1h 5m |
| Altitude | 37000 |
| Route | TESAT H252 OLSEM Y193 BANDA Y43 GREAV DCT GOMOL |
| Aircraft | A320/M-SDE3FGHIRWY/LB1 |
Departure
| Time | 2026-05-06 11:33 |
|---|---|
| Airport | Sydney Kingsford Smith International Airport (YSSY) |
Arrival
| Time | 2026-05-06 12:38 |
|---|---|
| Airport | Gold Coast Airport (YBCG) |
| Time | Latitude | Longitude | Altitude | Speed | Heading |
|---|---|---|---|---|---|
| 2026-05-06 11:03 | -33.93524 | 151.17765 | 30 ft | 0 kts | 279° |
| 2026-05-06 11:20 | -33.93525 | 151.17774 | 30 ft | 4 kts | 280° |
| 2026-05-06 11:20 | -33.93530 | 151.17806 | 30 ft | 4 kts | 275° |
| 2026-05-06 11:20 | -33.93528 | 151.17834 | 30 ft | 4 kts | 223° |
| 2026-05-06 11:20 | -33.93531 | 151.17837 | 30 ft | 4 kts | 190° |
| 2026-05-06 11:21 | -33.93557 | 151.17832 | 30 ft | 4 kts | 190° |
| 2026-05-06 11:21 | -33.93584 | 151.17826 | 30 ft | 4 kts | 190° |
| 2026-05-06 11:21 | -33.93610 | 151.17821 | 30 ft | 3 kts | 190° |
| 2026-05-06 11:21 | -33.93613 | 151.17820 | 30 ft | 0 kts | 190° |
| 2026-05-06 11:24 | -33.93624 | 151.17818 | 30 ft | 8 kts | 191° |
| 2026-05-06 11:24 | -33.93701 | 151.17795 | 30 ft | 13 kts | 193° |
| 2026-05-06 11:25 | -33.93796 | 151.17767 | 30 ft | 15 kts | 194° |
| 2026-05-06 11:25 | -33.93903 | 151.17782 | 29 ft | 17 kts | 167° |
| 2026-05-06 11:25 | -33.94029 | 151.17813 | 29 ft | 20 kts | 168° |
| 2026-05-06 11:25 | -33.94174 | 151.17850 | 30 ft | 22 kts | 168° |
| 2026-05-06 11:26 | -33.94331 | 151.17891 | 30 ft | 24 kts | 167° |
| 2026-05-06 11:26 | -33.94466 | 151.17895 | 30 ft | 19 kts | 205° |
| 2026-05-06 11:26 | -33.94590 | 151.17898 | 29 ft | 19 kts | 168° |
| 2026-05-06 11:26 | -33.94725 | 151.17934 | 30 ft | 21 kts | 168° |
| 2026-05-06 11:27 | -33.94882 | 151.17975 | 30 ft | 25 kts | 167° |
| 2026-05-06 11:27 | -33.95038 | 151.18017 | 30 ft | 16 kts | 167° |
| 2026-05-06 11:27 | -33.95098 | 151.18118 | 30 ft | 18 kts | 79° |
| 2026-05-06 11:27 | -33.95069 | 151.18276 | 30 ft | 19 kts | 76° |
| 2026-05-06 11:28 | -33.95044 | 151.18417 | 30 ft | 18 kts | 78° |
| 2026-05-06 11:28 | -33.95093 | 151.18526 | 30 ft | 15 kts | 150° |
| 2026-05-06 11:28 | -33.95179 | 151.18613 | 30 ft | 18 kts | 138° |
| 2026-05-06 11:28 | -33.95286 | 151.18704 | 30 ft | 20 kts | 158° |
| 2026-05-06 11:29 | -33.95451 | 151.18754 | 30 ft | 27 kts | 168° |
| 2026-05-06 11:29 | -33.95638 | 151.18802 | 30 ft | 29 kts | 167° |
| 2026-05-06 11:29 | -33.95839 | 151.18856 | 30 ft | 30 kts | 168° |
| 2026-05-06 11:29 | -33.96051 | 151.18910 | 30 ft | 32 kts | 168° |
| 2026-05-06 11:30 | -33.96275 | 151.18968 | 30 ft | 34 kts | 168° |
| 2026-05-06 11:30 | -33.96506 | 151.19028 | 30 ft | 34 kts | 167° |
| 2026-05-06 11:30 | -33.96685 | 151.19073 | 30 ft | 20 kts | 172° |
| 2026-05-06 11:30 | -33.96827 | 151.19067 | 30 ft | 21 kts | 171° |
| 2026-05-06 11:31 | -33.96977 | 151.19105 | 30 ft | 21 kts | 167° |
| 2026-05-06 11:31 | -33.97101 | 151.19144 | 30 ft | 16 kts | 150° |
| 2026-05-06 11:31 | -33.97116 | 151.19256 | 29 ft | 15 kts | 76° |
| 2026-05-06 11:31 | -33.97074 | 151.19360 | 28 ft | 11 kts | 25° |
| 2026-05-06 11:32 | -33.96996 | 151.19356 | 25 ft | 17 kts | 347° |
| 2026-05-06 11:32 | -33.96634 | 151.19262 | 23 ft | 89 kts | 348° |
| 2026-05-06 11:32 | -33.95834 | 151.19055 | 28 ft | 143 kts | 347° |
| 2026-05-06 11:32 | -33.94748 | 151.18783 | 317 ft | 164 kts | 348° |
| 2026-05-06 11:33 | -33.94005 | 151.18663 | 750 ft | 164 kts | 3° |
| 2026-05-06 11:33 | -33.92919 | 151.19072 | 1396 ft | 167 kts | 32° |
| 2026-05-06 11:33 | -33.91964 | 151.19955 | 1873 ft | 182 kts | 35° |
| 2026-05-06 11:33 | -33.90919 | 151.20881 | 2374 ft | 191 kts | 33° |
| 2026-05-06 11:34 | -33.89783 | 151.21860 | 2685 ft | 212 kts | 34° |
| 2026-05-06 11:34 | -33.88543 | 151.22938 | 3068 ft | 231 kts | 34° |
| 2026-05-06 11:34 | -33.87173 | 151.24132 | 3518 ft | 255 kts | 34° |
| 2026-05-06 11:34 | -33.85702 | 151.25416 | 4305 ft | 265 kts | 34° |
| 2026-05-06 11:35 | -33.84228 | 151.26787 | 5212 ft | 272 kts | 43° |
| 2026-05-06 11:35 | -33.83167 | 151.28707 | 6070 ft | 282 kts | 68° |
| 2026-05-06 11:35 | -33.82573 | 151.30978 | 6951 ft | 287 kts | 72° |
| 2026-05-06 11:35 | -33.81991 | 151.33295 | 7815 ft | 291 kts | 71° |
| 2026-05-06 11:36 | -33.81309 | 151.35590 | 8703 ft | 292 kts | 62° |
| 2026-05-06 11:36 | -33.80219 | 151.37653 | 9555 ft | 294 kts | 49° |
| 2026-05-06 11:36 | -33.78918 | 151.39578 | 10273 ft | 303 kts | 48° |
| 2026-05-06 11:36 | -33.77533 | 151.41612 | 10536 ft | 326 kts | 48° |
| 2026-05-06 11:37 | -33.76067 | 151.43760 | 10850 ft | 345 kts | 48° |
| 2026-05-06 11:37 | -33.74533 | 151.46020 | 11467 ft | 352 kts | 48° |
| 2026-05-06 11:37 | -33.72982 | 151.48320 | 12157 ft | 357 kts | 48° |
| 2026-05-06 11:37 | -33.71413 | 151.50657 | 12861 ft | 361 kts | 48° |
| 2026-05-06 11:38 | -33.69826 | 151.53020 | 13547 ft | 366 kts | 48° |
| 2026-05-06 11:38 | -33.68213 | 151.55415 | 14186 ft | 370 kts | 48° |
| 2026-05-06 11:38 | -33.66590 | 151.57820 | 14788 ft | 374 kts | 48° |
| 2026-05-06 11:38 | -33.64855 | 151.60145 | 15375 ft | 376 kts | 40° |
| 2026-05-06 11:39 | -33.62797 | 151.62080 | 15972 ft | 376 kts | 30° |
| 2026-05-06 11:39 | -33.60592 | 151.63795 | 16574 ft | 379 kts | 30° |
| 2026-05-06 11:39 | -33.58363 | 151.65538 | 17171 ft | 383 kts | 30° |
| 2026-05-06 11:39 | -33.56128 | 151.67295 | 17778 ft | 387 kts | 30° |
| 2026-05-06 11:40 | -33.53755 | 151.68797 | 18335 ft | 386 kts | 17° |
| 2026-05-06 11:40 | -33.51208 | 151.69837 | 18868 ft | 388 kts | 15° |
| 2026-05-06 11:40 | -33.48625 | 151.70866 | 19433 ft | 391 kts | 15° |
| 2026-05-06 11:40 | -33.46038 | 151.71889 | 19990 ft | 394 kts | 14° |
| 2026-05-06 11:41 | -33.43427 | 151.72917 | 20558 ft | 396 kts | 14° |
| 2026-05-06 11:41 | -33.40800 | 151.73956 | 21101 ft | 399 kts | 14° |
| 2026-05-06 11:41 | -33.38156 | 151.75000 | 21634 ft | 401 kts | 14° |
| 2026-05-06 11:41 | -33.35495 | 151.76050 | 22155 ft | 404 kts | 14° |
| 2026-05-06 11:42 | -33.32819 | 151.77111 | 22648 ft | 406 kts | 14° |
| 2026-05-06 11:42 | -33.30121 | 151.78182 | 23151 ft | 409 kts | 14° |
| 2026-05-06 11:42 | -33.27448 | 151.79246 | 23640 ft | 412 kts | 14° |
| 2026-05-06 11:42 | -33.24685 | 151.80346 | 24062 ft | 414 kts | 14° |
| 2026-05-06 11:43 | -33.21975 | 151.81421 | 24467 ft | 417 kts | 14° |
| 2026-05-06 11:43 | -33.19209 | 151.82517 | 24875 ft | 419 kts | 13° |
| 2026-05-06 11:43 | -33.16431 | 151.83616 | 25282 ft | 422 kts | 13° |
| 2026-05-06 11:44 | -33.10827 | 151.85837 | 26070 ft | 426 kts | 12° |
| 2026-05-06 11:44 | -33.07997 | 151.86955 | 26460 ft | 429 kts | 12° |
| 2026-05-06 11:44 | -33.05159 | 151.88071 | 26845 ft | 431 kts | 12° |
| 2026-05-06 11:44 | -33.02301 | 151.89191 | 27227 ft | 434 kts | 12° |
| 2026-05-06 11:45 | -32.99428 | 151.90317 | 27613 ft | 436 kts | 12° |
| 2026-05-06 11:45 | -32.96537 | 151.91456 | 28005 ft | 439 kts | 12° |
| 2026-05-06 11:45 | -32.93634 | 151.92604 | 28396 ft | 441 kts | 11° |
| 2026-05-06 11:45 | -32.90706 | 151.93754 | 28789 ft | 443 kts | 11° |
| 2026-05-06 11:46 | -32.87768 | 151.94906 | 29125 ft | 446 kts | 10° |
| 2026-05-06 11:46 | -32.84810 | 151.96064 | 29483 ft | 449 kts | 10° |
| 2026-05-06 11:46 | -32.81835 | 151.97230 | 29848 ft | 452 kts | 10° |
| 2026-05-06 11:46 | -32.78839 | 151.98409 | 30198 ft | 454 kts | 10° |
| 2026-05-06 11:47 | -32.75873 | 151.99576 | 30508 ft | 457 kts | 10° |
| 2026-05-06 11:47 | -32.72823 | 152.00773 | 30888 ft | 457 kts | 10° |
| 2026-05-06 11:47 | -32.69853 | 152.01936 | 31366 ft | 455 kts | 9° |
| 2026-05-06 11:47 | -32.66850 | 152.03113 | 31839 ft | 453 kts | 9° |
| 2026-05-06 11:48 | -32.63865 | 152.04282 | 32317 ft | 451 kts | 9° |
| 2026-05-06 11:48 | -32.60883 | 152.05447 | 32795 ft | 450 kts | 9° |
| 2026-05-06 11:48 | -32.57912 | 152.06603 | 33269 ft | 448 kts | 9° |
| 2026-05-06 11:48 | -32.54956 | 152.07752 | 33751 ft | 447 kts | 9° |
| 2026-05-06 11:49 | -32.52006 | 152.08899 | 34232 ft | 445 kts | 9° |
| 2026-05-06 11:49 | -32.49067 | 152.10046 | 34645 ft | 444 kts | 9° |
| 2026-05-06 11:49 | -32.46130 | 152.11193 | 35019 ft | 443 kts | 9° |
| 2026-05-06 11:49 | -32.43201 | 152.12335 | 35408 ft | 442 kts | 8° |
| 2026-05-06 11:50 | -32.40281 | 152.13470 | 35791 ft | 441 kts | 8° |
| 2026-05-06 11:50 | -32.37372 | 152.14596 | 36155 ft | 441 kts | 8° |
| 2026-05-06 11:50 | -32.34451 | 152.15725 | 36505 ft | 440 kts | 8° |
| 2026-05-06 11:50 | -32.31537 | 152.16854 | 36821 ft | 440 kts | 8° |
| 2026-05-06 11:51 | -32.28627 | 152.17982 | 37040 ft | 441 kts | 8° |
| 2026-05-06 11:51 | -32.25707 | 152.19114 | 37073 ft | 442 kts | 8° |
| 2026-05-06 11:51 | -32.19861 | 152.21377 | 37080 ft | 442 kts | 8° |
| 2026-05-06 11:52 | -32.14021 | 152.23636 | 37079 ft | 442 kts | 8° |
| 2026-05-06 11:52 | -32.08212 | 152.25866 | 37073 ft | 441 kts | 8° |
| 2026-05-06 11:53 | -32.02365 | 152.28114 | 37061 ft | 441 kts | 8° |
| 2026-05-06 11:53 | -31.96517 | 152.30368 | 37068 ft | 442 kts | 8° |
| 2026-05-06 11:54 | -31.90672 | 152.32615 | 37075 ft | 442 kts | 8° |
| 2026-05-06 11:54 | -31.84825 | 152.34861 | 37081 ft | 442 kts | 8° |
| 2026-05-06 11:55 | -31.78980 | 152.37097 | 37050 ft | 442 kts | 8° |
| 2026-05-06 11:55 | -31.73133 | 152.39339 | 37062 ft | 442 kts | 8° |
| 2026-05-06 11:56 | -31.67289 | 152.41576 | 37071 ft | 442 kts | 8° |
| 2026-05-06 11:56 | -31.61482 | 152.43788 | 37085 ft | 442 kts | 8° |
| 2026-05-06 11:57 | -31.55624 | 152.46020 | 37076 ft | 442 kts | 8° |
| 2026-05-06 11:57 | -31.49782 | 152.48251 | 37085 ft | 441 kts | 8° |
| 2026-05-06 11:58 | -31.43945 | 152.50468 | 37090 ft | 441 kts | 8° |
| 2026-05-06 11:58 | -31.38111 | 152.52682 | 37082 ft | 441 kts | 8° |
| 2026-05-06 11:59 | -31.32273 | 152.54885 | 37068 ft | 441 kts | 7° |
| 2026-05-06 11:59 | -31.26432 | 152.57089 | 37078 ft | 441 kts | 8° |
| 2026-05-06 12:00 | -31.20596 | 152.59301 | 37087 ft | 442 kts | 8° |
| 2026-05-06 12:00 | -31.14746 | 152.61516 | 37087 ft | 441 kts | 8° |
| 2026-05-06 12:01 | -31.08901 | 152.63725 | 37053 ft | 442 kts | 8° |
| 2026-05-06 12:01 | -31.03046 | 152.65917 | 37063 ft | 442 kts | 8° |
| 2026-05-06 12:02 | -30.97188 | 152.68112 | 37079 ft | 442 kts | 8° |
| 2026-05-06 12:02 | -30.91332 | 152.70321 | 37087 ft | 443 kts | 8° |
| 2026-05-06 12:03 | -30.85473 | 152.72524 | 37070 ft | 443 kts | 7° |
| 2026-05-06 12:03 | -30.79594 | 152.74721 | 37081 ft | 443 kts | 7° |
| 2026-05-06 12:04 | -30.73724 | 152.76915 | 37092 ft | 443 kts | 7° |
| 2026-05-06 12:04 | -30.67860 | 152.79108 | 37088 ft | 443 kts | 7° |
| 2026-05-06 12:05 | -30.62022 | 152.81287 | 37069 ft | 443 kts | 7° |
| 2026-05-06 12:05 | -30.56155 | 152.83483 | 37093 ft | 443 kts | 7° |
| 2026-05-06 12:06 | -30.50284 | 152.85669 | 37101 ft | 443 kts | 7° |
| 2026-05-06 12:06 | -30.44407 | 152.87848 | 37114 ft | 443 kts | 7° |
| 2026-05-06 12:07 | -30.38536 | 152.90025 | 37118 ft | 443 kts | 7° |
| 2026-05-06 12:07 | -30.32666 | 152.92202 | 37123 ft | 443 kts | 7° |
| 2026-05-06 12:08 | -30.26802 | 152.94380 | 37117 ft | 442 kts | 7° |
| 2026-05-06 12:08 | -30.20936 | 152.96555 | 37108 ft | 443 kts | 7° |
| 2026-05-06 12:09 | -30.15071 | 152.98720 | 37090 ft | 443 kts | 7° |
| 2026-05-06 12:09 | -30.09201 | 153.00883 | 37096 ft | 443 kts | 7° |
| 2026-05-06 12:10 | -30.03330 | 153.03039 | 37104 ft | 443 kts | 7° |
| 2026-05-06 12:10 | -29.97461 | 153.05205 | 37106 ft | 443 kts | 7° |
| 2026-05-06 12:11 | -29.91590 | 153.07367 | 37098 ft | 443 kts | 6° |
| 2026-05-06 12:11 | -29.85724 | 153.09522 | 37103 ft | 443 kts | 6° |
| 2026-05-06 12:12 | -29.79847 | 153.11683 | 37109 ft | 443 kts | 6° |
| 2026-05-06 12:12 | -29.73975 | 153.13833 | 37099 ft | 443 kts | 6° |
| 2026-05-06 12:13 | -29.68095 | 153.15980 | 36927 ft | 444 kts | 6° |
| 2026-05-06 12:13 | -29.65152 | 153.17052 | 36515 ft | 443 kts | 6° |
| 2026-05-06 12:13 | -29.62242 | 153.18112 | 36193 ft | 446 kts | 7° |
| 2026-05-06 12:14 | -29.59254 | 153.19197 | 34867 ft | 455 kts | 11° |
| 2026-05-06 12:14 | -29.56221 | 153.20301 | 34204 ft | 456 kts | 8° |
| 2026-05-06 12:14 | -29.53182 | 153.21409 | 33251 ft | 461 kts | 9° |
| 2026-05-06 12:14 | -29.50119 | 153.22529 | 32370 ft | 463 kts | 9° |
| 2026-05-06 12:15 | -29.47065 | 153.23646 | 31844 ft | 457 kts | 9° |
| 2026-05-06 12:15 | -29.44051 | 153.24751 | 31272 ft | 453 kts | 9° |
| 2026-05-06 12:15 | -29.41061 | 153.25845 | 30693 ft | 449 kts | 9° |
| 2026-05-06 12:15 | -29.38095 | 153.26926 | 30103 ft | 446 kts | 10° |
| 2026-05-06 12:16 | -29.35154 | 153.27995 | 29472 ft | 441 kts | 10° |
| 2026-05-06 12:16 | -29.32239 | 153.29056 | 28911 ft | 435 kts | 10° |
| 2026-05-06 12:16 | -29.29407 | 153.30089 | 28346 ft | 430 kts | 10° |
| 2026-05-06 12:16 | -29.26532 | 153.31131 | 27791 ft | 425 kts | 10° |
| 2026-05-06 12:17 | -29.23725 | 153.32145 | 27218 ft | 421 kts | 10° |
| 2026-05-06 12:17 | -29.20951 | 153.33147 | 26700 ft | 416 kts | 10° |
| 2026-05-06 12:17 | -29.19130 | 153.33804 | 26346 ft | 413 kts | 10° |
| 2026-05-06 12:17 | -29.15519 | 153.35108 | 25658 ft | 409 kts | 11° |
| 2026-05-06 12:18 | -29.12819 | 153.36082 | 25155 ft | 405 kts | 11° |
| 2026-05-06 12:18 | -29.10139 | 153.37048 | 24660 ft | 402 kts | 11° |
| 2026-05-06 12:18 | -29.07478 | 153.38004 | 24188 ft | 399 kts | 11° |
| 2026-05-06 12:18 | -29.04840 | 153.38956 | 23718 ft | 396 kts | 11° |
| 2026-05-06 12:19 | -29.02219 | 153.39904 | 23202 ft | 393 kts | 11° |
| 2026-05-06 12:19 | -29.00466 | 153.40539 | 22901 ft | 390 kts | 11° |
| 2026-05-06 12:19 | -28.97894 | 153.41470 | 22448 ft | 386 kts | 11° |
| 2026-05-06 12:19 | -28.95345 | 153.42389 | 21988 ft | 381 kts | 11° |
| 2026-05-06 12:20 | -28.92828 | 153.43295 | 21534 ft | 377 kts | 12° |
| 2026-05-06 12:20 | -28.90340 | 153.44192 | 21056 ft | 374 kts | 12° |
| 2026-05-06 12:20 | -28.87902 | 153.45070 | 20601 ft | 371 kts | 12° |
| 2026-05-06 12:20 | -28.85442 | 153.45953 | 20094 ft | 369 kts | 12° |
| 2026-05-06 12:21 | -28.83000 | 153.46847 | 19600 ft | 367 kts | 13° |
| 2026-05-06 12:21 | -28.80595 | 153.47835 | 19074 ft | 367 kts | 15° |
| 2026-05-06 12:21 | -28.78223 | 153.48889 | 18570 ft | 367 kts | 17° |
| 2026-05-06 12:21 | -28.75853 | 153.49978 | 17995 ft | 366 kts | 18° |
| 2026-05-06 12:22 | -28.73503 | 153.51066 | 17475 ft | 363 kts | 18° |
| 2026-05-06 12:22 | -28.71172 | 153.52137 | 16959 ft | 360 kts | 17° |
| 2026-05-06 12:22 | -28.68845 | 153.53191 | 16446 ft | 357 kts | 17° |
| 2026-05-06 12:22 | -28.66545 | 153.54220 | 15931 ft | 355 kts | 17° |
| 2026-05-06 12:23 | -28.64246 | 153.55241 | 15430 ft | 353 kts | 17° |
| 2026-05-06 12:23 | -28.61964 | 153.56247 | 14920 ft | 350 kts | 17° |
| 2026-05-06 12:23 | -28.59700 | 153.57245 | 14429 ft | 349 kts | 17° |
| 2026-05-06 12:23 | -28.57446 | 153.58239 | 13930 ft | 347 kts | 17° |
| 2026-05-06 12:24 | -28.55201 | 153.59229 | 13393 ft | 345 kts | 17° |
| 2026-05-06 12:24 | -28.52971 | 153.60214 | 12899 ft | 342 kts | 18° |
| 2026-05-06 12:24 | -28.50755 | 153.61152 | 12412 ft | 339 kts | 17° |
| 2026-05-06 12:24 | -28.48528 | 153.62017 | 11925 ft | 336 kts | 15° |
| 2026-05-06 12:25 | -28.46315 | 153.62837 | 11445 ft | 334 kts | 15° |
| 2026-05-06 12:25 | -28.44102 | 153.63645 | 10984 ft | 333 kts | 15° |
| 2026-05-06 12:25 | -28.41898 | 153.64452 | 10514 ft | 332 kts | 15° |
| 2026-05-06 12:25 | -28.39736 | 153.65251 | 10375 ft | 321 kts | 15° |
| 2026-05-06 12:26 | -28.37656 | 153.66020 | 10257 ft | 309 kts | 15° |
| 2026-05-06 12:26 | -28.35638 | 153.66755 | 10115 ft | 300 kts | 15° |
| 2026-05-06 12:26 | -28.33664 | 153.67468 | 9791 ft | 297 kts | 15° |
| 2026-05-06 12:26 | -28.31689 | 153.68178 | 9428 ft | 296 kts | 15° |
| 2026-05-06 12:27 | -28.29712 | 153.68796 | 9036 ft | 294 kts | 6° |
| 2026-05-06 12:27 | -28.27687 | 153.68871 | 8669 ft | 290 kts | 352° |
| 2026-05-06 12:27 | -28.25749 | 153.68359 | 8326 ft | 286 kts | 338° |
| 2026-05-06 12:27 | -28.23872 | 153.67606 | 7978 ft | 285 kts | 338° |
| 2026-05-06 12:28 | -28.22029 | 153.66865 | 7641 ft | 284 kts | 339° |
| 2026-05-06 12:28 | -28.20176 | 153.66120 | 7313 ft | 282 kts | 339° |
| 2026-05-06 12:28 | -28.18320 | 153.65376 | 6968 ft | 282 kts | 339° |
| 2026-05-06 12:28 | -28.16478 | 153.64639 | 6635 ft | 281 kts | 339° |
| 2026-05-06 12:29 | -28.14634 | 153.63898 | 6277 ft | 280 kts | 338° |
| 2026-05-06 12:29 | -28.12798 | 153.63161 | 5928 ft | 280 kts | 339° |
| 2026-05-06 12:29 | -28.10982 | 153.62432 | 5745 ft | 272 kts | 340° |
| 2026-05-06 12:29 | -28.09259 | 153.61742 | 5608 ft | 253 kts | 339° |
| 2026-05-06 12:30 | -28.07656 | 153.61103 | 5490 ft | 235 kts | 339° |
| 2026-05-06 12:30 | -28.06169 | 153.60511 | 5357 ft | 218 kts | 339° |
| 2026-05-06 12:30 | -28.04817 | 153.59888 | 5199 ft | 203 kts | 333° |
| 2026-05-06 12:30 | -28.03572 | 153.59187 | 4915 ft | 198 kts | 332° |
| 2026-05-06 12:31 | -28.02331 | 153.58459 | 4439 ft | 207 kts | 332° |
| 2026-05-06 12:31 | -28.01013 | 153.57673 | 4127 ft | 218 kts | 332° |
| 2026-05-06 12:31 | -27.99676 | 153.56864 | 3802 ft | 219 kts | 331° |
| 2026-05-06 12:31 | -27.98386 | 153.55963 | 3490 ft | 218 kts | 316° |
| 2026-05-06 12:32 | -27.97628 | 153.54540 | 3177 ft | 210 kts | 277° |
| 2026-05-06 12:32 | -27.97680 | 153.52963 | 3028 ft | 198 kts | 256° |
| 2026-05-06 12:32 | -27.98005 | 153.51459 | 2914 ft | 195 kts | 252° |
| 2026-05-06 12:32 | -27.98363 | 153.49998 | 2759 ft | 188 kts | 251° |
| 2026-05-06 12:33 | -27.98710 | 153.48588 | 2639 ft | 189 kts | 252° |
| 2026-05-06 12:33 | -27.99070 | 153.47139 | 2555 ft | 193 kts | 252° |
| 2026-05-06 12:33 | -27.99433 | 153.45683 | 2537 ft | 194 kts | 250° |
| 2026-05-06 12:33 | -27.99847 | 153.44247 | 2531 ft | 191 kts | 236° |
| 2026-05-06 12:34 | -28.00742 | 153.43235 | 2524 ft | 175 kts | 210° |
| 2026-05-06 12:34 | -28.01823 | 153.42680 | 2537 ft | 168 kts | 193° |
| 2026-05-06 12:34 | -28.02971 | 153.42533 | 2548 ft | 165 kts | 176° |
| 2026-05-06 12:34 | -28.04078 | 153.42778 | 2496 ft | 164 kts | 159° |
| 2026-05-06 12:35 | -28.05096 | 153.43363 | 2351 ft | 162 kts | 150° |
| 2026-05-06 12:35 | -28.06048 | 153.43969 | 2156 ft | 154 kts | 150° |
| 2026-05-06 12:35 | -28.06933 | 153.44531 | 1979 ft | 139 kts | 150° |
| 2026-05-06 12:35 | -28.07755 | 153.45053 | 1799 ft | 134 kts | 150° |
| 2026-05-06 12:36 | -28.08563 | 153.45566 | 1625 ft | 132 kts | 150° |
| 2026-05-06 12:36 | -28.09362 | 153.46069 | 1441 ft | 132 kts | 150° |
| 2026-05-06 12:36 | -28.10162 | 153.46572 | 1300 ft | 131 kts | 148° |
| 2026-05-06 12:36 | -28.10953 | 153.47083 | 1127 ft | 132 kts | 149° |
| 2026-05-06 12:37 | -28.11743 | 153.47614 | 915 ft | 131 kts | 150° |
| 2026-05-06 12:37 | -28.12540 | 153.48125 | 734 ft | 131 kts | 151° |
| 2026-05-06 12:37 | -28.13336 | 153.48620 | 556 ft | 132 kts | 150° |
| 2026-05-06 12:37 | -28.14135 | 153.49123 | 415 ft | 133 kts | 152° |
| 2026-05-06 12:38 | -28.14945 | 153.49628 | 232 ft | 132 kts | 151° |
| 2026-05-06 12:38 | -28.15743 | 153.50128 | 64 ft | 133 kts | 152° |
| 2026-05-06 12:38 | -28.16469 | 153.50591 | 27 ft | 86 kts | 150° |
| 2026-05-06 12:38 | -28.16760 | 153.50777 | 28 ft | 29 kts | 150° |
| 2026-05-06 12:39 | -28.16920 | 153.50880 | 29 ft | 20 kts | 148° |
| 2026-05-06 12:39 | -28.16937 | 153.50967 | 27 ft | 9 kts | 66° |
| 2026-05-06 12:39 | -28.16903 | 153.51035 | 27 ft | 8 kts | 60° |
| 2026-05-06 12:39 | -28.16875 | 153.51094 | 26 ft | 10 kts | 62° |
| 2026-05-06 12:40 | -28.16819 | 153.51130 | 31 ft | 11 kts | 348° |
| 2026-05-06 12:40 | -28.16765 | 153.51101 | 26 ft | 8 kts | 330° |
| 2026-05-06 12:40 | -28.16722 | 153.51108 | 30 ft | 8 kts | 52° |
| 2026-05-06 12:40 | -28.16704 | 153.51148 | 26 ft | 5 kts | 61° |
| 2026-05-06 12:41 | -28.16697 | 153.51161 | 30 ft | 0 kts | 60° |